Aviation Digital Data Service (ADDS)

Output produced by METARs form (0329 UTC 24 June 2021)
found at http://aviationweather.gov/metar/data/
 
METAR text: KCVH 240315Z AUTO 24013KT 10SM CLR 17/12 A2997 RMK A01
Conditions at: KCVH (HOLLISTER MUNI , CA, US) observed 0315 UTC 24 June 2021
Temperature: 17.0°C (63°F)
Dewpoint: 12.0°C (54°F) [RH = 72%]
Pressure (altimeter): 29.97 inches Hg (1015.0 mb)
Winds: from the WSW (240 degrees) at 15 MPH (13 knots; 6.7 m/s)
Visibility: 10 or more miles (16+ km)
Ceiling: at least 12,000 feet AGL
Clouds: sky clear below 12,000 feet AGL
Weather: automated observation with no human augmentation;
there may or may not be significant weather present at this time